San Fernando Airport
SADF : rendu visible

Aérodrome :











RETROUVEZ-NOUS SUR...

 
LOGIN :

S'inscrire | Disclaimer

   EN    FR    IT 

 









Légende :    VFR   VFR Marginal   IFR   IFR Intensif   IFR Très Intensif
Visi : 
Plafond : 
>= 8 km
>= 3000ft
5 à 8 km
1000 à 3000 ft
1500m à 5 km
500 à 1000 ft
800 à 1500m
200 à 500 ft
< 800m
< 200 ft
Symboles :   Orages  Brouillard  Fortes neiges  Fortes précipitations  Vent > 20 kt






- Altitude de l'aérodrome : 10 ft
- Code IATA : FDO


SADF - San Fernando

DERNIER METAR :
  • 090600Z 18004KT CAVOK 11/08 Q1024

METARs EXPIRÉS :
  • 090500Z 18005KT CAVOK 11/09 Q1025
  • 090400Z 18004KT CAVOK 12/09 Q1025

TAF TAF SADF
Valide du 09 à 06h jusqu'au 10 à 06h UTC


090500Z 0906/1006 18005KT CAVOK TX20/0918Z TN10/0910Z
BECMG 0907/0908 6000 SCT020
BECMG 0912/0913 12010KT CAVOK
BECMG 0919/0921 09015KT



MET'MAP, la Météo Aéronautique d'un coup d'oeil ! - Copyright ORBIFLY Décembre 2007 - Disclaimer

ORBIFLY MET'MAP TEAM :

Programmation & Développement : Alexandra Zaïnal
Sur une idée originale de : Baudouin d'Aumeries
Assistance à la programmation : Marc-Olivier Méhu
Soutien technique & logistique : Manuel Goepfert

Contact : metmap@orbifly.com




SOURCES & CREDITS :

   NOAA       Earth
Advisory